sensor_id;sensor_type;location;lat;lon;timestamp;P1;durP1;ratioP1;P2;durP2;ratioP2
14849;SDS011;7517;48.400;11.770;2023-06-05T00:00:29;1.70;;;1.60;;
14849;SDS011;7517;48.400;11.770;2023-06-05T00:02:58;1.80;;;1.70;;
14849;SDS011;7517;48.400;11.770;2023-06-05T00:05:26;1.73;;;1.60;;
14849;SDS011;7517;48.400;11.770;2023-06-05T00:07:54;2.07;;;1.87;;
14849;SDS011;7517;48.400;11.770;2023-06-05T00:10:22;1.90;;;1.70;;
14849;SDS011;7517;48.400;11.770;2023-06-05T00:12:49;2.13;;;1.93;;
14849;SDS011;7517;48.400;11.770;2023-06-05T00:15:17;2.20;;;2.00;;
14849;SDS011;7517;48.400;11.770;2023-06-05T00:17:44;1.80;;;1.70;;
14849;SDS011;7517;48.400;11.770;2023-06-05T00:20:13;3.63;;;1.90;;
14849;SDS011;7517;48.400;11.770;2023-06-05T00:22:41;2.40;;;2.20;;
14849;SDS011;7517;48.400;11.770;2023-06-05T00:25:09;2.67;;;2.30;;
14849;SDS011;7517;48.400;11.770;2023-06-05T00:27:37;2.17;;;1.83;;
14849;SDS011;7517;48.400;11.770;2023-06-05T00:30:06;1.97;;;1.77;;
14849;SDS011;7517;48.400;11.770;2023-06-05T00:32:34;2.30;;;2.10;;
14849;SDS011;7517;48.400;11.770;2023-06-05T00:35:02;2.77;;;2.03;;
14849;SDS011;7517;48.400;11.770;2023-06-05T00:37:32;2.47;;;2.10;;
14849;SDS011;7517;48.400;11.770;2023-06-05T00:40:03;3.73;;;2.20;;
14849;SDS011;7517;48.400;11.770;2023-06-05T00:42:34;2.30;;;2.13;;
14849;SDS011;7517;48.400;11.770;2023-06-05T00:45:01;4.67;;;1.97;;
14849;SDS011;7517;48.400;11.770;2023-06-05T00:47:29;2.57;;;2.20;;
14849;SDS011;7517;48.400;11.770;2023-06-05T00:49:57;2.10;;;1.90;;
14849;SDS011;7517;48.400;11.770;2023-06-05T00:52:25;2.30;;;2.10;;
14849;SDS011;7517;48.400;11.770;2023-06-05T00:54:56;2.23;;;1.90;;
14849;SDS011;7517;48.400;11.770;2023-06-05T00:57:23;4.00;;;2.47;;
14849;SDS011;7517;48.400;11.770;2023-06-05T00:59:53;1.97;;;1.87;;
14849;SDS011;7517;48.400;11.770;2023-06-05T01:02:21;2.17;;;1.90;;
14849;SDS011;7517;48.400;11.770;2023-06-05T01:04:52;3.17;;;2.17;;
14849;SDS011;7517;48.400;11.770;2023-06-05T01:07:21;2.50;;;2.33;;
14849;SDS011;7517;48.400;11.770;2023-06-05T01:09:50;3.37;;;2.30;;
14849;SDS011;7517;48.400;11.770;2023-06-05T01:12:20;2.57;;;2.37;;
14849;SDS011;7517;48.400;11.770;2023-06-05T01:14:57;2.70;;;2.40;;
14849;SDS011;7517;48.400;11.770;2023-06-05T01:17:28;2.80;;;2.27;;
14849;SDS011;7517;48.400;11.770;2023-06-05T01:19:59;2.37;;;2.17;;
14849;SDS011;7517;48.400;11.770;2023-06-05T01:22:34;2.40;;;2.20;;
14849;SDS011;7517;48.400;11.770;2023-06-05T01:25:06;2.13;;;2.03;;
14849;SDS011;7517;48.400;11.770;2023-06-05T01:27:38;3.77;;;2.23;;
14849;SDS011;7517;48.400;11.770;2023-06-05T01:30:15;2.53;;;2.33;;
14849;SDS011;7517;48.400;11.770;2023-06-05T01:32:55;2.53;;;2.33;;
14849;SDS011;7517;48.400;11.770;2023-06-05T01:35:29;2.53;;;2.20;;
14849;SDS011;7517;48.400;11.770;2023-06-05T01:38:01;2.47;;;2.27;;
14849;SDS011;7517;48.400;11.770;2023-06-05T01:40:32;2.80;;;2.13;;
14849;SDS011;7517;48.400;11.770;2023-06-05T01:43:02;2.53;;;2.33;;
14849;SDS011;7517;48.400;11.770;2023-06-05T01:45:32;3.30;;;3.10;;
14849;SDS011;7517;48.400;11.770;2023-06-05T01:48:05;2.60;;;2.40;;
14849;SDS011;7517;48.400;11.770;2023-06-05T01:50:35;2.67;;;2.20;;
14849;SDS011;7517;48.400;11.770;2023-06-05T01:53:04;2.60;;;2.40;;
14849;SDS011;7517;48.400;11.770;2023-06-05T01:55:34;2.73;;;2.53;;
14849;SDS011;7517;48.400;11.770;2023-06-05T01:58:04;2.80;;;2.60;;
14849;SDS011;7517;48.400;11.770;2023-06-05T02:00:31;3.60;;;2.47;;
14849;SDS011;7517;48.400;11.770;2023-06-05T02:03:00;2.53;;;2.33;;
14849;SDS011;7517;48.400;11.770;2023-06-05T02:05:28;2.40;;;2.27;;
14849;SDS011;7517;48.400;11.770;2023-06-05T02:07:58;2.97;;;2.33;;
14849;SDS011;7517;48.400;11.770;2023-06-05T02:10:30;2.90;;;2.50;;
14849;SDS011;7517;48.400;11.770;2023-06-05T02:13:01;2.63;;;2.43;;
14849;SDS011;7517;48.400;11.770;2023-06-05T02:15:29;2.30;;;2.20;;
14849;SDS011;7517;48.400;11.770;2023-06-05T02:17:59;2.93;;;2.70;;
14849;SDS011;7517;48.400;11.770;2023-06-05T02:20:31;2.93;;;2.73;;
14849;SDS011;7517;48.400;11.770;2023-06-05T02:22:59;2.77;;;2.50;;
14849;SDS011;7517;48.400;11.770;2023-06-05T02:25:27;2.93;;;2.60;;
14849;SDS011;7517;48.400;11.770;2023-06-05T02:27:55;3.03;;;2.40;;
14849;SDS011;7517;48.400;11.770;2023-06-05T02:30:24;2.20;;;2.10;;
14849;SDS011;7517;48.400;11.770;2023-06-05T02:32:51;3.00;;;2.70;;
14849;SDS011;7517;48.400;11.770;2023-06-05T02:35:21;2.53;;;2.33;;
14849;SDS011;7517;48.400;11.770;2023-06-05T02:37:49;2.87;;;2.50;;
14849;SDS011;7517;48.400;11.770;2023-06-05T02:40:17;2.60;;;2.40;;
14849;SDS011;7517;48.400;11.770;2023-06-05T02:42:44;2.90;;;2.70;;
14849;SDS011;7517;48.400;11.770;2023-06-05T02:45:12;4.43;;;3.10;;
14849;SDS011;7517;48.400;11.770;2023-06-05T02:47:41;3.03;;;2.73;;
14849;SDS011;7517;48.400;11.770;2023-06-05T02:50:08;3.03;;;2.80;;
14849;SDS011;7517;48.400;11.770;2023-06-05T02:52:36;3.13;;;2.70;;
14849;SDS011;7517;48.400;11.770;2023-06-05T02:55:04;4.53;;;3.00;;
14849;SDS011;7517;48.400;11.770;2023-06-05T02:57:32;3.00;;;2.80;;
14849;SDS011;7517;48.400;11.770;2023-06-05T03:00:06;2.67;;;2.47;;
14849;SDS011;7517;48.400;11.770;2023-06-05T03:02:41;2.87;;;2.30;;
14849;SDS011;7517;48.400;11.770;2023-06-05T03:05:13;2.73;;;2.53;;
14849;SDS011;7517;48.400;11.770;2023-06-05T03:07:42;3.07;;;2.77;;
14849;SDS011;7517;48.400;11.770;2023-06-05T03:10:10;3.03;;;2.73;;
14849;SDS011;7517;48.400;11.770;2023-06-05T03:12:38;3.23;;;2.77;;
14849;SDS011;7517;48.400;11.770;2023-06-05T03:15:05;3.20;;;2.90;;
14849;SDS011;7517;48.400;11.770;2023-06-05T03:17:35;2.87;;;2.67;;
14849;SDS011;7517;48.400;11.770;2023-06-05T03:20:05;3.03;;;2.83;;
14849;SDS011;7517;48.400;11.770;2023-06-05T03:22:35;2.97;;;2.77;;
14849;SDS011;7517;48.400;11.770;2023-06-05T03:25:03;3.83;;;2.77;;
14849;SDS011;7517;48.400;11.770;2023-06-05T03:27:33;3.37;;;3.00;;
14849;SDS011;7517;48.400;11.770;2023-06-05T03:30:01;3.13;;;2.93;;
14849;SDS011;7517;48.400;11.770;2023-06-05T03:32:29;2.97;;;2.77;;
14849;SDS011;7517;48.400;11.770;2023-06-05T03:34:57;3.10;;;2.80;;
14849;SDS011;7517;48.400;11.770;2023-06-05T03:37:26;3.37;;;2.90;;
14849;SDS011;7517;48.400;11.770;2023-06-05T03:39:53;2.90;;;2.70;;
14849;SDS011;7517;48.400;11.770;2023-06-05T03:42:20;3.00;;;2.80;;
14849;SDS011;7517;48.400;11.770;2023-06-05T03:44:48;2.60;;;2.40;;
14849;SDS011;7517;48.400;11.770;2023-06-05T03:47:16;3.00;;;2.70;;
14849;SDS011;7517;48.400;11.770;2023-06-05T03:49:46;2.57;;;2.37;;
14849;SDS011;7517;48.400;11.770;2023-06-05T03:52:13;2.43;;;2.30;;
14849;SDS011;7517;48.400;11.770;2023-06-05T03:54:43;3.47;;;2.80;;
14849;SDS011;7517;48.400;11.770;2023-06-05T03:57:12;2.90;;;2.60;;
14849;SDS011;7517;48.400;11.770;2023-06-05T03:59:40;2.57;;;2.37;;
14849;SDS011;7517;48.400;11.770;2023-06-05T04:02:08;3.00;;;2.73;;
14849;SDS011;7517;48.400;11.770;2023-06-05T04:04:35;6.00;;;2.57;;
14849;SDS011;7517;48.400;11.770;2023-06-05T04:07:02;2.53;;;2.33;;
14849;SDS011;7517;48.400;11.770;2023-06-05T04:09:31;2.93;;;2.73;;
14849;SDS011;7517;48.400;11.770;2023-06-05T04:12:00;3.07;;;2.77;;
14849;SDS011;7517;48.400;11.770;2023-06-05T04:14:28;3.77;;;2.87;;
14849;SDS011;7517;48.400;11.770;2023-06-05T04:16:55;2.47;;;2.23;;
14849;SDS011;7517;48.400;11.770;2023-06-05T04:19:24;3.17;;;2.80;;
14849;SDS011;7517;48.400;11.770;2023-06-05T04:21:52;2.60;;;2.40;;
14849;SDS011;7517;48.400;11.770;2023-06-05T04:24:20;2.70;;;2.50;;
14849;SDS011;7517;48.400;11.770;2023-06-05T04:26:50;4.73;;;2.67;;
14849;SDS011;7517;48.400;11.770;2023-06-05T04:29:19;2.80;;;2.53;;
14849;SDS011;7517;48.400;11.770;2023-06-05T04:31:47;2.77;;;2.50;;
14849;SDS011;7517;48.400;11.770;2023-06-05T04:34:18;2.80;;;2.40;;
14849;SDS011;7517;48.400;11.770;2023-06-05T04:36:47;4.10;;;2.80;;
14849;SDS011;7517;48.400;11.770;2023-06-05T04:39:15;2.70;;;2.50;;
14849;SDS011;7517;48.400;11.770;2023-06-05T04:41:43;2.50;;;2.30;;
14849;SDS011;7517;48.400;11.770;2023-06-05T04:44:12;2.70;;;2.50;;
14849;SDS011;7517;48.400;11.770;2023-06-05T04:46:42;3.13;;;2.57;;
14849;SDS011;7517;48.400;11.770;2023-06-05T04:49:10;3.00;;;2.70;;
14849;SDS011;7517;48.400;11.770;2023-06-05T04:51:39;2.73;;;2.53;;
14849;SDS011;7517;48.400;11.770;2023-06-05T04:54:09;2.47;;;2.27;;
14849;SDS011;7517;48.400;11.770;2023-06-05T04:56:37;2.83;;;2.50;;
14849;SDS011;7517;48.400;11.770;2023-06-05T04:59:04;4.53;;;2.80;;
14849;SDS011;7517;48.400;11.770;2023-06-05T05:01:32;3.07;;;2.77;;
14849;SDS011;7517;48.400;11.770;2023-06-05T05:04:01;2.80;;;2.60;;
14849;SDS011;7517;48.400;11.770;2023-06-05T05:06:28;3.20;;;2.40;;
14849;SDS011;7517;48.400;11.770;2023-06-05T05:08:56;2.83;;;2.63;;
14849;SDS011;7517;48.400;11.770;2023-06-05T05:11:23;3.83;;;2.50;;
14849;SDS011;7517;48.400;11.770;2023-06-05T05:13:52;3.33;;;3.03;;
14849;SDS011;7517;48.400;11.770;2023-06-05T05:16:19;2.93;;;2.57;;
14849;SDS011;7517;48.400;11.770;2023-06-05T05:18:47;5.63;;;2.97;;
14849;SDS011;7517;48.400;11.770;2023-06-05T05:21:16;3.77;;;2.63;;
14849;SDS011;7517;48.400;11.770;2023-06-05T05:23:43;2.87;;;2.47;;
14849;SDS011;7517;48.400;11.770;2023-06-05T05:26:11;2.50;;;2.30;;
14849;SDS011;7517;48.400;11.770;2023-06-05T05:28:38;2.70;;;2.40;;
14849;SDS011;7517;48.400;11.770;2023-06-05T05:31:06;3.00;;;2.70;;
14849;SDS011;7517;48.400;11.770;2023-06-05T05:33:33;2.40;;;2.20;;
14849;SDS011;7517;48.400;11.770;2023-06-05T05:36:00;2.70;;;2.50;;
14849;SDS011;7517;48.400;11.770;2023-06-05T05:38:30;3.23;;;2.53;;
14849;SDS011;7517;48.400;11.770;2023-06-05T05:40:58;2.87;;;2.40;;
14849;SDS011;7517;48.400;11.770;2023-06-05T05:43:25;2.60;;;2.40;;
14849;SDS011;7517;48.400;11.770;2023-06-05T05:45:52;4.30;;;3.00;;
14849;SDS011;7517;48.400;11.770;2023-06-05T05:48:19;2.80;;;2.50;;
14849;SDS011;7517;48.400;11.770;2023-06-05T05:50:48;3.87;;;2.83;;
14849;SDS011;7517;48.400;11.770;2023-06-05T05:53:15;2.63;;;2.30;;
14849;SDS011;7517;48.400;11.770;2023-06-05T05:55:44;2.73;;;2.53;;
14849;SDS011;7517;48.400;11.770;2023-06-05T05:58:11;2.90;;;2.70;;
14849;SDS011;7517;48.400;11.770;2023-06-05T06:00:39;2.90;;;2.53;;
14849;SDS011;7517;48.400;11.770;2023-06-05T06:03:06;2.77;;;2.57;;
14849;SDS011;7517;48.400;11.770;2023-06-05T06:05:33;4.90;;;2.63;;
14849;SDS011;7517;48.400;11.770;2023-06-05T06:08:02;4.80;;;2.93;;
14849;SDS011;7517;48.400;11.770;2023-06-05T06:10:30;2.90;;;2.70;;
14849;SDS011;7517;48.400;11.770;2023-06-05T06:12:58;2.90;;;2.63;;
14849;SDS011;7517;48.400;11.770;2023-06-05T06:15:26;3.47;;;2.60;;
14849;SDS011;7517;48.400;11.770;2023-06-05T06:17:53;3.20;;;2.90;;
14849;SDS011;7517;48.400;11.770;2023-06-05T06:20:22;3.37;;;2.97;;
14849;SDS011;7517;48.400;11.770;2023-06-05T06:22:52;3.43;;;3.13;;
14849;SDS011;7517;48.400;11.770;2023-06-05T06:25:20;2.83;;;2.60;;
14849;SDS011;7517;48.400;11.770;2023-06-05T06:27:51;2.73;;;2.47;;
14849;SDS011;7517;48.400;11.770;2023-06-05T06:30:20;3.20;;;2.90;;
14849;SDS011;7517;48.400;11.770;2023-06-05T06:32:48;2.80;;;2.60;;
14849;SDS011;7517;48.400;11.770;2023-06-05T06:35:15;3.00;;;2.60;;
14849;SDS011;7517;48.400;11.770;2023-06-05T06:37:42;3.53;;;2.60;;
14849;SDS011;7517;48.400;11.770;2023-06-05T06:40:10;2.93;;;2.60;;
14849;SDS011;7517;48.400;11.770;2023-06-05T06:42:39;3.53;;;2.87;;
14849;SDS011;7517;48.400;11.770;2023-06-05T06:45:06;3.10;;;2.90;;
14849;SDS011;7517;48.400;11.770;2023-06-05T06:47:36;2.53;;;2.33;;
14849;SDS011;7517;48.400;11.770;2023-06-05T06:50:04;2.90;;;2.60;;
14849;SDS011;7517;48.400;11.770;2023-06-05T06:52:32;3.20;;;2.90;;
14849;SDS011;7517;48.400;11.770;2023-06-05T06:54:59;2.97;;;2.77;;
14849;SDS011;7517;48.400;11.770;2023-06-05T06:57:28;3.10;;;2.80;;
14849;SDS011;7517;48.400;11.770;2023-06-05T06:59:55;3.83;;;3.10;;
14849;SDS011;7517;48.400;11.770;2023-06-05T07:02:23;3.20;;;2.90;;
14849;SDS011;7517;48.400;11.770;2023-06-05T07:04:53;4.50;;;2.83;;
14849;SDS011;7517;48.400;11.770;2023-06-05T07:07:20;3.27;;;2.93;;
14849;SDS011;7517;48.400;11.770;2023-06-05T07:09:48;3.60;;;2.97;;
14849;SDS011;7517;48.400;11.770;2023-06-05T07:12:17;3.70;;;2.87;;
14849;SDS011;7517;48.400;11.770;2023-06-05T07:14:47;3.00;;;2.80;;
14849;SDS011;7517;48.400;11.770;2023-06-05T07:17:15;3.03;;;2.83;;
14849;SDS011;7517;48.400;11.770;2023-06-05T07:19:42;3.13;;;2.63;;
14849;SDS011;7517;48.400;11.770;2023-06-05T07:22:11;2.93;;;2.73;;
14849;SDS011;7517;48.400;11.770;2023-06-05T07:24:39;3.13;;;2.73;;
14849;SDS011;7517;48.400;11.770;2023-06-05T07:27:06;3.70;;;2.77;;
14849;SDS011;7517;48.400;11.770;2023-06-05T07:29:35;2.80;;;2.60;;
14849;SDS011;7517;48.400;11.770;2023-06-05T07:32:02;2.70;;;2.50;;
14849;SDS011;7517;48.400;11.770;2023-06-05T07:34:32;2.77;;;2.57;;
14849;SDS011;7517;48.400;11.770;2023-06-05T07:36:59;3.07;;;2.73;;
14849;SDS011;7517;48.400;11.770;2023-06-05T07:39:28;3.13;;;2.93;;
14849;SDS011;7517;48.400;11.770;2023-06-05T07:41:56;2.67;;;2.47;;
14849;SDS011;7517;48.400;11.770;2023-06-05T07:44:23;3.03;;;2.73;;
14849;SDS011;7517;48.400;11.770;2023-06-05T07:46:50;2.73;;;2.53;;
14849;SDS011;7517;48.400;11.770;2023-06-05T07:49:18;4.23;;;2.70;;
14849;SDS011;7517;48.400;11.770;2023-06-05T07:51:48;3.00;;;2.77;;
14849;SDS011;7517;48.400;11.770;2023-06-05T07:54:16;5.10;;;2.80;;
14849;SDS011;7517;48.400;11.770;2023-06-05T07:56:46;5.50;;;3.07;;
14849;SDS011;7517;48.400;11.770;2023-06-05T07:59:15;3.07;;;2.77;;
14849;SDS011;7517;48.400;11.770;2023-06-05T08:01:47;2.90;;;2.70;;
14849;SDS011;7517;48.400;11.770;2023-06-05T08:04:15;2.80;;;2.20;;
14849;SDS011;7517;48.400;11.770;2023-06-05T08:06:42;3.47;;;2.77;;
14849;SDS011;7517;48.400;11.770;2023-06-05T08:09:10;4.10;;;3.00;;
14849;SDS011;7517;48.400;11.770;2023-06-05T08:11:38;2.97;;;2.67;;
14849;SDS011;7517;48.400;11.770;2023-06-05T08:14:09;2.80;;;2.60;;
14849;SDS011;7517;48.400;11.770;2023-06-05T08:16:36;3.27;;;2.80;;
14849;SDS011;7517;48.400;11.770;2023-06-05T08:19:03;3.13;;;2.90;;
14849;SDS011;7517;48.400;11.770;2023-06-05T08:21:31;2.77;;;2.57;;
14849;SDS011;7517;48.400;11.770;2023-06-05T08:24:00;2.70;;;2.53;;
14849;SDS011;7517;48.400;11.770;2023-06-05T08:26:27;3.20;;;3.00;;
14849;SDS011;7517;48.400;11.770;2023-06-05T08:28:54;3.37;;;2.57;;
14849;SDS011;7517;48.400;11.770;2023-06-05T08:31:23;3.10;;;2.90;;
14849;SDS011;7517;48.400;11.770;2023-06-05T08:33:51;3.10;;;2.80;;
14849;SDS011;7517;48.400;11.770;2023-06-05T08:36:18;2.77;;;2.57;;
14849;SDS011;7517;48.400;11.770;2023-06-05T08:38:46;2.90;;;2.70;;
14849;SDS011;7517;48.400;11.770;2023-06-05T08:41:13;2.97;;;2.70;;
14849;SDS011;7517;48.400;11.770;2023-06-05T08:43:41;2.70;;;2.50;;
14849;SDS011;7517;48.400;11.770;2023-06-05T08:46:09;3.20;;;2.77;;
14849;SDS011;7517;48.400;11.770;2023-06-05T08:48:43;3.00;;;2.70;;
14849;SDS011;7517;48.400;11.770;2023-06-05T08:51:13;4.17;;;3.50;;
14849;SDS011;7517;48.400;11.770;2023-06-05T08:53:42;2.77;;;2.57;;
14849;SDS011;7517;48.400;11.770;2023-06-05T08:56:19;4.50;;;2.70;;
14849;SDS011;7517;48.400;11.770;2023-06-05T08:58:48;3.53;;;2.70;;
14849;SDS011;7517;48.400;11.770;2023-06-05T09:01:15;2.90;;;2.70;;
14849;SDS011;7517;48.400;11.770;2023-06-05T09:03:44;2.90;;;2.70;;
14849;SDS011;7517;48.400;11.770;2023-06-05T09:06:12;2.67;;;2.47;;
14849;SDS011;7517;48.400;11.770;2023-06-05T09:08:39;2.87;;;2.63;;
14849;SDS011;7517;48.400;11.770;2023-06-05T09:13:54;2.60;;;2.40;;
14849;SDS011;7517;48.400;11.770;2023-06-05T09:16:22;2.63;;;2.43;;
14849;SDS011;7517;48.400;11.770;2023-06-05T09:19:02;3.67;;;2.80;;
14849;SDS011;7517;48.400;11.770;2023-06-05T09:21:30;3.07;;;2.87;;
14849;SDS011;7517;48.400;11.770;2023-06-05T09:24:13;3.30;;;2.50;;
14849;SDS011;7517;48.400;11.770;2023-06-05T09:26:46;2.70;;;2.50;;
14849;SDS011;7517;48.400;11.770;2023-06-05T09:29:25;2.70;;;2.50;;
14849;SDS011;7517;48.400;11.770;2023-06-05T09:31:55;3.13;;;2.92;;
14849;SDS011;7517;48.400;11.770;2023-06-05T09:34:27;2.70;;;2.50;;
14849;SDS011;7517;48.400;11.770;2023-06-05T09:36:56;3.00;;;2.53;;
14849;SDS011;7517;48.400;11.770;2023-06-05T09:39:25;3.85;;;2.90;;
14849;SDS011;7517;48.400;11.770;2023-06-05T09:41:54;2.88;;;2.67;;
14849;SDS011;7517;48.400;11.770;2023-06-05T09:44:24;2.90;;;2.67;;
14849;SDS011;7517;48.400;11.770;2023-06-05T09:46:54;3.05;;;2.85;;
14849;SDS011;7517;48.400;11.770;2023-06-05T09:49:45;2.15;;;2.05;;
14849;SDS011;7517;48.400;11.770;2023-06-05T09:52:14;2.88;;;2.30;;
14849;SDS011;7517;48.400;11.770;2023-06-05T09:54:42;2.60;;;2.40;;
14849;SDS011;7517;48.400;11.770;2023-06-05T09:57:11;3.50;;;2.83;;
14849;SDS011;7517;48.400;11.770;2023-06-05T09:59:40;2.90;;;2.58;;
14849;SDS011;7517;48.400;11.770;2023-06-05T10:02:17;2.40;;;2.22;;
14849;SDS011;7517;48.400;11.770;2023-06-05T10:04:49;2.50;;;2.30;;
14849;SDS011;7517;48.400;11.770;2023-06-05T10:07:23;2.53;;;2.35;;
14849;SDS011;7517;48.400;11.770;2023-06-05T10:09:51;5.93;;;2.38;;
14849;SDS011;7517;48.400;11.770;2023-06-05T10:12:20;2.85;;;2.22;;
14849;SDS011;7517;48.400;11.770;2023-06-05T10:14:52;2.53;;;2.13;;
14849;SDS011;7517;48.400;11.770;2023-06-05T10:17:21;2.63;;;2.33;;
14849;SDS011;7517;48.400;11.770;2023-06-05T10:19:51;2.13;;;2.03;;
14849;SDS011;7517;48.400;11.770;2023-06-05T10:22:19;2.70;;;2.50;;
14849;SDS011;7517;48.400;11.770;2023-06-05T10:24:48;2.30;;;2.10;;
14849;SDS011;7517;48.400;11.770;2023-06-05T10:27:36;2.60;;;2.13;;
14849;SDS011;7517;48.400;11.770;2023-06-05T10:34:12;2.42;;;2.08;;
14849;SDS011;7517;48.400;11.770;2023-06-05T10:40:07;2.53;;;2.30;;
14849;SDS011;7517;48.400;11.770;2023-06-05T10:42:36;2.05;;;1.88;;
14849;SDS011;7517;48.400;11.770;2023-06-05T10:45:04;1.92;;;1.73;;
14849;SDS011;7517;48.400;11.770;2023-06-05T10:47:49;7.00;;;2.28;;
14849;SDS011;7517;48.400;11.770;2023-06-05T10:50:22;2.53;;;1.85;;
14849;SDS011;7517;48.400;11.770;2023-06-05T10:52:57;2.30;;;1.92;;
14849;SDS011;7517;48.400;11.770;2023-06-05T10:55:25;3.10;;;2.15;;
14849;SDS011;7517;48.400;11.770;2023-06-05T10:58:07;2.65;;;2.20;;
14849;SDS011;7517;48.400;11.770;2023-06-05T11:03:55;2.70;;;2.00;;
14849;SDS011;7517;48.400;11.770;2023-06-05T11:06:25;3.00;;;2.00;;
14849;SDS011;7517;48.400;11.770;2023-06-05T11:09:20;2.45;;;2.25;;
14849;SDS011;7517;48.400;11.770;2023-06-05T11:11:58;2.47;;;2.28;;
14849;SDS011;7517;48.400;11.770;2023-06-05T11:14:42;2.38;;;2.22;;
14849;SDS011;7517;48.400;11.770;2023-06-05T11:17:27;2.08;;;1.90;;
14849;SDS011;7517;48.400;11.770;2023-06-05T11:19:56;2.38;;;2.15;;
14849;SDS011;7517;48.400;11.770;2023-06-05T11:22:24;2.15;;;2.03;;
14849;SDS011;7517;48.400;11.770;2023-06-05T11:27:53;2.00;;;1.90;;
14849;SDS011;7517;48.400;11.770;2023-06-05T11:30:26;1.80;;;1.70;;
14849;SDS011;7517;48.400;11.770;2023-06-05T11:32:57;2.17;;;1.63;;
14849;SDS011;7517;48.400;11.770;2023-06-05T11:35:33;2.05;;;1.88;;
14849;SDS011;7517;48.400;11.770;2023-06-05T11:38:11;2.40;;;1.85;;
14849;SDS011;7517;48.400;11.770;2023-06-05T11:40:41;1.83;;;1.73;;
14849;SDS011;7517;48.400;11.770;2023-06-05T11:43:12;2.08;;;1.95;;
14849;SDS011;7517;48.400;11.770;2023-06-05T11:45:41;2.30;;;2.10;;
14849;SDS011;7517;48.400;11.770;2023-06-05T11:48:16;1.55;;;1.40;;
14849;SDS011;7517;48.400;11.770;2023-06-05T11:50:51;2.17;;;1.98;;
14849;SDS011;7517;48.400;11.770;2023-06-05T11:53:22;1.70;;;1.60;;
14849;SDS011;7517;48.400;11.770;2023-06-05T11:55:51;1.92;;;1.83;;
14849;SDS011;7517;48.400;11.770;2023-06-05T11:58:33;1.67;;;1.48;;
14849;SDS011;7517;48.400;11.770;2023-06-05T12:01:05;1.58;;;1.48;;
14849;SDS011;7517;48.400;11.770;2023-06-05T12:03:39;1.88;;;1.70;;
14849;SDS011;7517;48.400;11.770;2023-06-05T12:06:07;2.20;;;1.77;;
14849;SDS011;7517;48.400;11.770;2023-06-05T12:08:37;1.55;;;1.40;;
14849;SDS011;7517;48.400;11.770;2023-06-05T12:11:18;1.77;;;1.67;;
14849;SDS011;7517;48.400;11.770;2023-06-05T12:13:48;1.80;;;1.70;;
14849;SDS011;7517;48.400;11.770;2023-06-05T12:16:17;1.60;;;1.50;;
14849;SDS011;7517;48.400;11.770;2023-06-05T12:18:55;1.73;;;1.63;;
14849;SDS011;7517;48.400;11.770;2023-06-05T12:21:23;1.42;;;1.33;;
14849;SDS011;7517;48.400;11.770;2023-06-05T12:24:00;2.85;;;1.90;;
14849;SDS011;7517;48.400;11.770;2023-06-05T12:26:30;3.92;;;1.80;;
14849;SDS011;7517;48.400;11.770;2023-06-05T12:29:15;1.75;;;1.65;;
14849;SDS011;7517;48.400;11.770;2023-06-05T12:31:43;1.80;;;1.70;;
14849;SDS011;7517;48.400;11.770;2023-06-05T12:34:10;1.92;;;1.73;;
14849;SDS011;7517;48.400;11.770;2023-06-05T12:36:40;2.03;;;1.92;;
14849;SDS011;7517;48.400;11.770;2023-06-05T12:39:13;1.65;;;1.38;;
14849;SDS011;7517;48.400;11.770;2023-06-05T12:41:42;1.97;;;1.70;;
14849;SDS011;7517;48.400;11.770;2023-06-05T12:44:10;1.67;;;1.58;;
14849;SDS011;7517;48.400;11.770;2023-06-05T12:46:38;1.60;;;1.48;;
14849;SDS011;7517;48.400;11.770;2023-06-05T12:49:05;2.10;;;1.77;;
14849;SDS011;7517;48.400;11.770;2023-06-05T12:51:33;1.73;;;1.63;;
14849;SDS011;7517;48.400;11.770;2023-06-05T12:54:01;2.35;;;1.85;;
14849;SDS011;7517;48.400;11.770;2023-06-05T12:56:29;1.67;;;1.57;;
14849;SDS011;7517;48.400;11.770;2023-06-05T12:59:01;1.63;;;1.53;;
14849;SDS011;7517;48.400;11.770;2023-06-05T13:01:28;1.83;;;1.63;;
14849;SDS011;7517;48.400;11.770;2023-06-05T13:03:57;7.03;;;2.03;;
14849;SDS011;7517;48.400;11.770;2023-06-05T13:06:25;1.60;;;1.50;;
14849;SDS011;7517;48.400;11.770;2023-06-05T13:08:53;1.53;;;1.20;;
14849;SDS011;7517;48.400;11.770;2023-06-05T13:11:20;1.90;;;1.50;;
14849;SDS011;7517;48.400;11.770;2023-06-05T13:13:48;1.50;;;1.40;;
14849;SDS011;7517;48.400;11.770;2023-06-05T13:16:17;1.65;;;1.55;;
14849;SDS011;7517;48.400;11.770;2023-06-05T13:18:44;1.97;;;1.30;;
14849;SDS011;7517;48.400;11.770;2023-06-05T13:21:14;3.83;;;1.80;;
14849;SDS011;7517;48.400;11.770;2023-06-05T13:23:41;1.20;;;1.20;;
14849;SDS011;7517;48.400;11.770;2023-06-05T13:26:08;1.50;;;1.40;;
14849;SDS011;7517;48.400;11.770;2023-06-05T13:28:36;2.83;;;1.48;;
14849;SDS011;7517;48.400;11.770;2023-06-05T13:31:04;1.60;;;1.50;;
14849;SDS011;7517;48.400;11.770;2023-06-05T13:33:33;1.13;;;1.13;;
14849;SDS011;7517;48.400;11.770;2023-06-05T13:36:01;3.83;;;1.80;;
14849;SDS011;7517;48.400;11.770;2023-06-05T13:38:29;1.40;;;1.30;;
14849;SDS011;7517;48.400;11.770;2023-06-05T13:40:56;1.60;;;1.50;;
14849;SDS011;7517;48.400;11.770;2023-06-05T13:43:24;1.77;;;1.13;;
14849;SDS011;7517;48.400;11.770;2023-06-05T13:45:52;1.77;;;1.43;;
14849;SDS011;7517;48.400;11.770;2023-06-05T13:48:20;1.90;;;1.23;;
14849;SDS011;7517;48.400;11.770;2023-06-05T13:50:49;1.40;;;1.30;;
14849;SDS011;7517;48.400;11.770;2023-06-05T13:53:16;1.60;;;1.07;;
14849;SDS011;7517;48.400;11.770;2023-06-05T13:55:44;1.57;;;1.47;;
14849;SDS011;7517;48.400;11.770;2023-06-05T13:58:11;2.07;;;1.50;;
14849;SDS011;7517;48.400;11.770;2023-06-05T14:00:38;1.73;;;1.63;;
14849;SDS011;7517;48.400;11.770;2023-06-05T14:03:08;2.38;;;1.30;;
14849;SDS011;7517;48.400;11.770;2023-06-05T14:05:36;1.50;;;1.40;;
14849;SDS011;7517;48.400;11.770;2023-06-05T14:08:05;1.40;;;1.30;;
14849;SDS011;7517;48.400;11.770;2023-06-05T14:10:33;1.40;;;1.30;;
14849;SDS011;7517;48.400;11.770;2023-06-05T14:13:01;2.80;;;1.30;;
14849;SDS011;7517;48.400;11.770;2023-06-05T14:15:30;1.30;;;1.20;;
14849;SDS011;7517;48.400;11.770;2023-06-05T14:18:00;2.30;;;1.40;;
14849;SDS011;7517;48.400;11.770;2023-06-05T14:20:30;1.13;;;1.13;;
14849;SDS011;7517;48.400;11.770;2023-06-05T14:22:58;1.70;;;1.20;;
14849;SDS011;7517;48.400;11.770;2023-06-05T14:25:28;1.37;;;1.30;;
14849;SDS011;7517;48.400;11.770;2023-06-05T14:27:56;1.67;;;1.30;;
14849;SDS011;7517;48.400;11.770;2023-06-05T14:30:24;1.00;;;1.00;;
14849;SDS011;7517;48.400;11.770;2023-06-05T14:32:52;1.53;;;1.33;;
14849;SDS011;7517;48.400;11.770;2023-06-05T14:35:20;1.10;;;1.10;;
14849;SDS011;7517;48.400;11.770;2023-06-05T14:37:47;1.10;;;0.90;;
14849;SDS011;7517;48.400;11.770;2023-06-05T14:40:15;1.27;;;1.00;;
14849;SDS011;7517;48.400;11.770;2023-06-05T14:42:44;1.10;;;1.10;;
14849;SDS011;7517;48.400;11.770;2023-06-05T14:45:11;1.10;;;1.00;;
14849;SDS011;7517;48.400;11.770;2023-06-05T14:47:39;1.03;;;0.93;;
14849;SDS011;7517;48.400;11.770;2023-06-05T14:50:06;1.13;;;1.03;;
14849;SDS011;7517;48.400;11.770;2023-06-05T14:52:34;2.17;;;1.10;;
14849;SDS011;7517;48.400;11.770;2023-06-05T14:55:03;1.63;;;1.07;;
14849;SDS011;7517;48.400;11.770;2023-06-05T14:57:31;1.17;;;1.07;;
14849;SDS011;7517;48.400;11.770;2023-06-05T15:00:00;1.10;;;1.10;;
14849;SDS011;7517;48.400;11.770;2023-06-05T15:02:29;1.40;;;1.10;;
14849;SDS011;7517;48.400;11.770;2023-06-05T15:04:58;0.90;;;0.90;;
14849;SDS011;7517;48.400;11.770;2023-06-05T15:07:34;1.10;;;1.10;;
14849;SDS011;7517;48.400;11.770;2023-06-05T15:10:02;1.10;;;1.03;;
14849;SDS011;7517;48.400;11.770;2023-06-05T15:12:31;0.93;;;0.93;;
14849;SDS011;7517;48.400;11.770;2023-06-05T15:15:00;0.90;;;0.90;;
14849;SDS011;7517;48.400;11.770;2023-06-05T15:17:28;1.20;;;1.10;;